createdAt,value
2023-05-25T00:01:44.218Z,2.08
2023-05-25T00:04:16.981Z,2.10
2023-05-25T00:06:45.479Z,2.10
2023-05-25T00:11:40.320Z,2.03
2023-05-25T00:14:08.454Z,2.17
2023-05-25T00:16:40.706Z,2.00
2023-05-25T00:19:10.764Z,1.73
2023-05-25T00:21:38.452Z,2.00
2023-05-25T00:24:06.172Z,2.20
2023-05-25T00:26:33.442Z,2.17
2023-05-25T00:29:00.969Z,2.00
2023-05-25T00:31:29.794Z,2.25
2023-05-25T00:33:57.205Z,2.00
2023-05-25T00:36:25.032Z,2.00
2023-05-25T00:38:52.395Z,1.85
2023-05-25T00:41:22.494Z,2.00
2023-05-25T00:43:49.747Z,2.45
2023-05-25T00:46:17.221Z,1.93
2023-05-25T00:48:44.723Z,2.05
2023-05-25T00:51:13.241Z,2.30
2023-05-25T00:53:41.507Z,1.92
2023-05-25T00:56:34.833Z,1.90
2023-05-25T00:59:07.608Z,2.28
2023-05-25T01:01:40.168Z,1.92
2023-05-25T01:04:13.394Z,2.05
2023-05-25T01:06:42.432Z,1.90
2023-05-25T01:09:09.803Z,1.92
2023-05-25T01:11:37.536Z,2.00
2023-05-25T01:14:04.833Z,2.03
2023-05-25T01:16:32.620Z,2.17
2023-05-25T01:18:59.922Z,2.20
2023-05-25T01:21:29.000Z,1.70
2023-05-25T01:24:12.078Z,1.77
2023-05-25T01:26:49.519Z,2.00
2023-05-25T01:29:19.072Z,2.10
2023-05-25T01:31:47.491Z,1.83
2023-05-25T01:34:14.835Z,1.90
2023-05-25T01:36:42.207Z,1.80
2023-05-25T01:39:11.071Z,1.90
2023-05-25T01:41:38.331Z,1.80
2023-05-25T01:44:07.720Z,2.00
2023-05-25T01:46:39.367Z,1.90
2023-05-25T01:49:27.928Z,2.00
2023-05-25T01:52:05.453Z,2.00
2023-05-25T01:54:39.792Z,2.00
2023-05-25T01:57:13.346Z,1.90
2023-05-25T01:59:42.185Z,2.00
2023-05-25T02:02:10.223Z,1.80
2023-05-25T02:04:37.568Z,2.00
2023-05-25T02:07:05.486Z,1.80
2023-05-25T02:09:32.797Z,1.98
2023-05-25T02:12:00.124Z,1.80
2023-05-25T02:14:27.657Z,1.80
2023-05-25T02:16:54.926Z,1.90
2023-05-25T02:19:22.248Z,2.13
2023-05-25T02:21:49.517Z,2.00
2023-05-25T02:24:17.016Z,1.90
2023-05-25T02:26:44.292Z,1.80
2023-05-25T02:29:11.718Z,1.80
2023-05-25T02:31:39.052Z,1.83
2023-05-25T02:34:06.490Z,1.70
2023-05-25T02:36:34.977Z,1.85
2023-05-25T02:39:02.279Z,2.00
2023-05-25T02:41:29.560Z,1.87
2023-05-25T02:43:56.812Z,1.90
2023-05-25T02:46:24.254Z,1.80
2023-05-25T02:48:51.645Z,1.80
2023-05-25T02:51:18.942Z,1.80
2023-05-25T02:53:46.225Z,1.90
2023-05-25T02:56:16.294Z,2.03
2023-05-25T02:58:43.593Z,1.75
2023-05-25T03:01:11.095Z,1.97
2023-05-25T03:03:40.979Z,1.95
2023-05-25T03:06:10.709Z,1.58
2023-05-25T03:08:37.935Z,1.77
2023-05-25T03:11:05.217Z,2.00
2023-05-25T03:13:32.483Z,1.70
2023-05-25T03:15:59.761Z,1.90
2023-05-25T03:18:27.108Z,1.60
2023-05-25T03:20:54.409Z,2.00
2023-05-25T03:23:21.994Z,2.10
2023-05-25T03:25:51.843Z,1.70
2023-05-25T03:28:19.084Z,1.85
2023-05-25T03:30:47.125Z,1.75
2023-05-25T03:35:41.937Z,1.90
2023-05-25T03:38:09.312Z,1.70
2023-05-25T03:40:36.593Z,1.70
2023-05-25T03:43:03.856Z,1.57
2023-05-25T03:45:31.364Z,1.70
2023-05-25T03:47:58.746Z,1.83
2023-05-25T03:50:26.121Z,1.52
2023-05-25T03:52:53.463Z,1.83
2023-05-25T03:55:20.819Z,1.70
2023-05-25T03:57:48.112Z,1.77
2023-05-25T04:00:15.615Z,2.00
2023-05-25T04:02:43.008Z,1.80
2023-05-25T04:05:10.557Z,1.95
2023-05-25T04:07:38.117Z,1.80
2023-05-25T04:10:06.431Z,1.85
2023-05-25T04:12:34.100Z,1.92
2023-05-25T04:15:01.410Z,1.70
2023-05-25T04:17:28.760Z,1.80
2023-05-25T04:19:56.848Z,1.73
2023-05-25T04:24:51.354Z,1.50
2023-05-25T04:27:20.513Z,1.77
2023-05-25T04:29:50.229Z,1.60
2023-05-25T04:32:17.979Z,1.63
2023-05-25T04:34:46.882Z,1.70
2023-05-25T04:37:14.307Z,1.80
2023-05-25T04:39:41.732Z,1.85
2023-05-25T04:42:12.900Z,1.55
2023-05-25T04:44:40.295Z,1.50
2023-05-25T04:47:08.079Z,1.73
2023-05-25T04:49:35.894Z,1.60
2023-05-25T04:52:03.541Z,1.55
2023-05-25T04:54:30.783Z,1.70
2023-05-25T04:56:58.297Z,1.50
2023-05-25T04:59:25.763Z,1.33
2023-05-25T05:01:53.138Z,1.50
2023-05-25T05:04:20.447Z,1.63
2023-05-25T05:06:47.748Z,1.70
2023-05-25T05:09:15.135Z,1.60
2023-05-25T05:11:42.440Z,1.50
2023-05-25T05:14:09.783Z,1.80
2023-05-25T05:16:37.465Z,1.80
2023-05-25T05:19:05.014Z,1.48
2023-05-25T05:21:32.274Z,1.50
2023-05-25T05:23:59.571Z,1.77
2023-05-25T05:26:27.826Z,1.97
2023-05-25T05:28:55.135Z,1.58
2023-05-25T05:31:23.155Z,1.50
2023-05-25T05:33:50.856Z,1.42
2023-05-25T05:36:18.182Z,1.50
2023-05-25T05:38:48.013Z,1.63
2023-05-25T05:41:15.410Z,1.50
2023-05-25T05:43:44.141Z,1.60
2023-05-25T05:46:11.581Z,1.50
2023-05-25T05:48:39.032Z,1.52
2023-05-25T05:51:06.762Z,1.67
2023-05-25T05:53:35.490Z,1.50
2023-05-25T05:56:03.314Z,1.65
2023-05-25T05:58:32.426Z,1.50
2023-05-25T06:01:00.095Z,1.63
2023-05-25T06:03:30.116Z,1.55
2023-05-25T06:05:57.601Z,1.77
2023-05-25T06:08:25.198Z,1.80
2023-05-25T06:10:52.517Z,1.50
2023-05-25T06:13:19.779Z,1.50
2023-05-25T06:15:47.293Z,1.57
2023-05-25T06:18:14.705Z,1.67
2023-05-25T06:20:42.183Z,1.60
2023-05-25T06:23:11.546Z,1.52
2023-05-25T06:25:39.052Z,1.70
2023-05-25T06:28:06.631Z,1.50
2023-05-25T06:30:33.885Z,1.40
2023-05-25T06:33:01.234Z,1.50
2023-05-25T06:35:29.476Z,1.58
2023-05-25T06:37:59.446Z,1.45
2023-05-25T06:40:26.800Z,1.48
2023-05-25T06:42:54.239Z,1.75
2023-05-25T06:45:22.313Z,1.63
2023-05-25T06:47:49.612Z,1.70
2023-05-25T06:50:18.117Z,1.87
2023-05-25T06:52:46.815Z,1.40
2023-05-25T06:55:16.834Z,1.45
2023-05-25T06:57:44.780Z,1.50
2023-05-25T07:00:12.357Z,1.60
2023-05-25T07:02:39.878Z,1.42
2023-05-25T07:05:07.368Z,1.48
2023-05-25T07:07:34.700Z,1.50
2023-05-25T07:10:05.196Z,1.50
2023-05-25T07:12:32.545Z,1.50
2023-05-25T07:14:59.879Z,1.50
2023-05-25T07:17:28.629Z,1.67
2023-05-25T07:19:56.107Z,1.40
2023-05-25T07:22:23.797Z,1.80
2023-05-25T07:24:51.109Z,1.50
2023-05-25T07:27:19.705Z,1.50
2023-05-25T07:29:47.109Z,1.77
2023-05-25T07:32:14.396Z,1.50
2023-05-25T07:34:42.092Z,1.53
2023-05-25T07:37:09.446Z,1.50
2023-05-25T07:39:40.559Z,1.60
2023-05-25T07:42:08.075Z,1.48
2023-05-25T07:44:37.888Z,1.58
2023-05-25T07:47:07.144Z,1.50
2023-05-25T07:49:34.974Z,1.55
2023-05-25T07:52:04.393Z,1.52
2023-05-25T07:54:31.653Z,1.70
2023-05-25T07:56:58.901Z,1.60
2023-05-25T07:59:27.038Z,1.60
2023-05-25T08:04:24.628Z,1.45
2023-05-25T08:06:51.962Z,1.70
2023-05-25T08:09:19.323Z,1.27
2023-05-25T08:11:47.463Z,1.53
2023-05-25T08:16:41.935Z,1.60
2023-05-25T08:19:09.279Z,1.48
2023-05-25T08:21:37.741Z,1.50
2023-05-25T08:24:06.085Z,1.50
2023-05-25T08:26:53.074Z,1.40
2023-05-25T08:29:21.364Z,1.40
2023-05-25T08:31:51.327Z,1.60
2023-05-25T08:34:18.952Z,1.40
2023-05-25T08:36:48.760Z,1.40
2023-05-25T08:39:16.786Z,1.45
2023-05-25T08:41:44.636Z,1.48
2023-05-25T08:44:12.088Z,1.52
2023-05-25T08:46:39.424Z,1.60
2023-05-25T08:49:14.023Z,1.50
2023-05-25T08:51:49.588Z,1.40
2023-05-25T08:54:26.352Z,1.40
2023-05-25T08:56:54.458Z,1.63
2023-05-25T08:59:21.720Z,1.50
2023-05-25T09:01:50.812Z,1.60
2023-05-25T09:04:19.695Z,1.30
2023-05-25T09:06:57.221Z,1.42
2023-05-25T09:09:36.193Z,1.58
2023-05-25T09:12:04.339Z,1.60
2023-05-25T09:16:59.467Z,1.20
2023-05-25T09:19:26.875Z,1.30
2023-05-25T09:22:03.055Z,1.60
2023-05-25T09:24:35.465Z,1.60
2023-05-25T09:27:03.817Z,1.42
2023-05-25T09:29:32.367Z,1.60
2023-05-25T09:32:01.105Z,1.50
2023-05-25T09:34:34.072Z,1.45
2023-05-25T09:37:01.942Z,1.30
2023-05-25T09:39:29.535Z,1.33
2023-05-25T09:41:57.841Z,1.70
2023-05-25T09:46:55.021Z,1.30
2023-05-25T09:49:22.709Z,1.35
2023-05-25T09:51:50.215Z,1.45
2023-05-25T09:54:17.888Z,1.50
2023-05-25T09:56:46.307Z,1.42
2023-05-25T09:59:13.690Z,1.40
2023-05-25T10:01:42.033Z,1.40
2023-05-25T10:04:11.454Z,1.30
2023-05-25T10:06:40.474Z,1.27
2023-05-25T10:09:09.803Z,1.30
2023-05-25T10:11:39.963Z,1.40
2023-05-25T10:14:08.509Z,1.50
2023-05-25T10:16:36.414Z,1.50
2023-05-25T10:19:12.883Z,1.48
2023-05-25T10:21:40.522Z,1.35
2023-05-25T10:24:10.751Z,1.30
2023-05-25T10:26:41.324Z,1.50
2023-05-25T10:29:09.872Z,1.40
2023-05-25T10:31:38.353Z,1.48
2023-05-25T10:34:05.701Z,1.30
2023-05-25T10:36:34.456Z,1.57
2023-05-25T10:39:03.301Z,1.38
2023-05-25T10:41:30.697Z,1.50
2023-05-25T10:43:58.079Z,1.50
2023-05-25T10:46:25.589Z,1.30
2023-05-25T10:48:52.963Z,1.40
2023-05-25T10:51:21.056Z,1.60
2023-05-25T10:56:15.940Z,1.40
2023-05-25T10:58:46.755Z,1.55
2023-05-25T11:01:15.152Z,1.30
2023-05-25T11:03:48.340Z,1.35
2023-05-25T11:06:16.722Z,1.40
2023-05-25T11:11:11.229Z,1.47
2023-05-25T11:13:41.237Z,1.40
2023-05-25T11:16:15.245Z,1.30
2023-05-25T11:18:46.363Z,1.50
2023-05-25T11:21:13.894Z,1.40
2023-05-25T11:23:54.223Z,1.48
2023-05-25T11:26:22.700Z,1.27
2023-05-25T11:28:51.789Z,1.20
2023-05-25T11:31:23.573Z,1.30
2023-05-25T11:33:57.369Z,1.40
2023-05-25T11:36:25.760Z,1.40
2023-05-25T11:39:04.827Z,1.25
2023-05-25T11:41:37.378Z,1.20
2023-05-25T11:44:08.482Z,1.30
2023-05-25T11:46:38.824Z,1.50
2023-05-25T11:49:06.228Z,1.40
2023-05-25T11:51:33.496Z,1.10
2023-05-25T11:54:00.816Z,1.30
2023-05-25T11:56:35.592Z,1.30
2023-05-25T11:59:03.568Z,1.52
2023-05-25T12:01:32.132Z,1.33
2023-05-25T12:03:59.859Z,1.10
2023-05-25T12:06:39.025Z,1.50
2023-05-25T12:09:11.714Z,1.30
2023-05-25T12:11:39.274Z,1.60
2023-05-25T12:14:07.335Z,1.70
2023-05-25T12:19:02.572Z,1.50
2023-05-25T12:21:30.036Z,1.40
2023-05-25T12:23:57.705Z,1.40
2023-05-25T12:26:24.974Z,1.50
2023-05-25T12:28:59.497Z,1.27
2023-05-25T12:31:28.178Z,1.50
2023-05-25T12:34:15.027Z,1.40
2023-05-25T12:36:42.390Z,1.38
2023-05-25T12:39:11.688Z,1.33
2023-05-25T12:41:54.987Z,3.05
2023-05-25T12:44:31.479Z,3.60
2023-05-25T12:47:13.486Z,3.13
2023-05-25T12:49:41.645Z,3.60
2023-05-25T12:54:37.040Z,3.13
2023-05-25T12:57:07.866Z,3.60
2023-05-25T12:59:36.482Z,3.50
2023-05-25T13:02:05.584Z,3.05
2023-05-25T13:04:32.909Z,3.72
2023-05-25T13:07:00.438Z,4.10
2023-05-25T13:09:28.007Z,4.10
2023-05-25T13:11:58.864Z,4.00
2023-05-25T13:14:26.606Z,4.70
2023-05-25T13:16:54.790Z,3.92
2023-05-25T13:19:22.809Z,3.78
2023-05-25T13:21:50.840Z,3.97
2023-05-25T13:24:19.695Z,4.10
2023-05-25T13:26:49.883Z,3.45
2023-05-25T13:29:18.334Z,3.60
2023-05-25T13:31:45.798Z,3.50
2023-05-25T13:34:13.756Z,3.50
2023-05-25T13:36:41.217Z,4.25
2023-05-25T13:39:13.389Z,3.72
2023-05-25T13:41:41.214Z,4.47
2023-05-25T13:44:08.593Z,3.67
2023-05-25T13:46:37.738Z,3.50
2023-05-25T13:49:07.752Z,4.05
2023-05-25T13:51:35.679Z,3.67
2023-05-25T13:56:32.803Z,3.83
2023-05-25T13:59:00.136Z,3.80
2023-05-25T14:01:28.299Z,3.63
2023-05-25T14:03:56.324Z,3.80
2023-05-25T14:08:51.018Z,3.90
2023-05-25T14:11:21.843Z,3.57
2023-05-25T14:13:54.175Z,4.43
2023-05-25T14:16:21.478Z,4.40
2023-05-25T14:18:48.839Z,4.45
2023-05-25T14:21:16.350Z,3.80
2023-05-25T14:23:43.823Z,3.67
2023-05-25T14:26:11.125Z,3.70
2023-05-25T14:28:40.869Z,3.97
2023-05-25T14:31:08.225Z,3.30
2023-05-25T14:33:35.760Z,3.47
2023-05-25T14:36:02.993Z,3.70
2023-05-25T14:38:32.605Z,3.87
2023-05-25T14:41:01.383Z,3.63
2023-05-25T14:43:28.873Z,3.67
2023-05-25T14:45:56.243Z,3.60
2023-05-25T14:48:25.482Z,3.30
2023-05-25T14:50:53.446Z,3.42
2023-05-25T14:53:20.857Z,2.92
2023-05-25T14:55:48.121Z,3.30
2023-05-25T14:58:15.425Z,2.97
2023-05-25T15:00:42.718Z,3.10
2023-05-25T15:03:10.155Z,3.00
2023-05-25T15:05:37.584Z,2.95
2023-05-25T15:08:04.908Z,3.22
2023-05-25T15:10:32.187Z,3.03
2023-05-25T15:12:59.441Z,3.07
2023-05-25T15:15:26.728Z,2.93
2023-05-25T15:17:54.043Z,3.03
2023-05-25T15:20:21.444Z,3.13
2023-05-25T15:22:48.803Z,2.78
2023-05-25T15:25:24.450Z,2.97
2023-05-25T15:28:01.715Z,2.95
2023-05-25T15:30:29.007Z,3.20
2023-05-25T15:32:56.347Z,2.90
2023-05-25T15:35:30.986Z,3.20
2023-05-25T15:38:04.041Z,2.90
2023-05-25T15:40:31.460Z,2.90
2023-05-25T15:42:58.753Z,3.40
2023-05-25T15:45:26.431Z,2.92
2023-05-25T15:47:53.901Z,2.60
2023-05-25T15:50:21.527Z,2.78
2023-05-25T15:52:51.352Z,2.65
2023-05-25T15:55:18.692Z,2.80
2023-05-25T15:57:48.193Z,2.40
2023-05-25T16:00:15.993Z,2.85
2023-05-25T16:02:43.350Z,2.83
2023-05-25T16:05:10.743Z,2.70
2023-05-25T16:07:38.018Z,2.60
2023-05-25T16:10:05.639Z,2.83
2023-05-25T16:12:32.926Z,2.65
2023-05-25T16:15:00.214Z,2.42
2023-05-25T16:17:28.530Z,3.28
2023-05-25T16:19:55.863Z,2.45
2023-05-25T16:22:23.220Z,3.10
2023-05-25T16:24:50.502Z,2.33
2023-05-25T16:27:17.809Z,2.70
2023-05-25T16:29:47.629Z,2.50
2023-05-25T16:32:17.244Z,2.90
2023-05-25T16:34:44.532Z,2.45
2023-05-25T16:37:11.872Z,2.38
2023-05-25T16:39:39.129Z,2.63
2023-05-25T16:42:06.808Z,2.70
2023-05-25T16:44:34.079Z,2.38
2023-05-25T16:47:01.342Z,2.50
2023-05-25T16:49:28.695Z,2.40
2023-05-25T16:51:55.963Z,2.60
2023-05-25T16:54:23.226Z,2.58
2023-05-25T16:56:50.635Z,2.50
2023-05-25T16:59:17.899Z,2.50
2023-05-25T17:01:45.318Z,2.50
2023-05-25T17:04:12.667Z,2.22
2023-05-25T17:06:40.009Z,2.53
2023-05-25T17:09:07.441Z,2.42
2023-05-25T17:11:34.723Z,2.42
2023-05-25T17:14:04.180Z,2.22
2023-05-25T17:16:31.584Z,2.47
2023-05-25T17:18:58.961Z,2.72
2023-05-25T17:21:27.055Z,2.50
2023-05-25T17:23:54.307Z,2.70
2023-05-25T17:26:22.639Z,2.40
2023-05-25T17:28:49.983Z,2.35
2023-05-25T17:31:17.286Z,2.25
2023-05-25T17:33:44.559Z,2.40
2023-05-25T17:36:11.886Z,2.47
2023-05-25T17:38:40.285Z,2.35
2023-05-25T17:41:07.583Z,2.30
2023-05-25T17:43:34.879Z,2.05
2023-05-25T17:46:02.295Z,2.65
2023-05-25T17:48:29.657Z,2.60
2023-05-25T17:50:56.897Z,2.30
2023-05-25T17:53:27.142Z,2.35
2023-05-25T17:55:54.382Z,2.10
2023-05-25T17:58:24.237Z,2.50
2023-05-25T18:00:53.778Z,2.28
2023-05-25T18:03:21.222Z,2.40
2023-05-25T18:05:48.752Z,2.20
2023-05-25T18:08:16.074Z,2.50
2023-05-25T18:10:43.469Z,2.08
2023-05-25T18:13:10.762Z,2.40
2023-05-25T18:15:38.088Z,2.22
2023-05-25T18:18:07.176Z,1.98
2023-05-25T18:20:36.907Z,2.50
2023-05-25T18:23:06.649Z,2.00
2023-05-25T18:25:33.969Z,2.40
2023-05-25T18:28:01.258Z,2.38
2023-05-25T18:30:28.518Z,2.17
2023-05-25T18:32:55.996Z,2.30
2023-05-25T18:35:23.340Z,2.33
2023-05-25T18:37:52.838Z,2.20
2023-05-25T18:40:20.210Z,1.98
2023-05-25T18:42:50.921Z,2.03
2023-05-25T18:45:18.175Z,2.47
2023-05-25T18:47:45.604Z,2.20
2023-05-25T18:50:12.935Z,1.98
2023-05-25T18:52:41.579Z,2.20
2023-05-25T18:55:09.148Z,2.28
2023-05-25T18:57:36.568Z,2.25
2023-05-25T19:00:03.977Z,2.20
2023-05-25T19:02:31.336Z,2.38
2023-05-25T19:04:58.743Z,2.10
2023-05-25T19:07:26.030Z,2.08
2023-05-25T19:09:53.372Z,2.30
2023-05-25T19:12:20.686Z,2.10
2023-05-25T19:14:47.955Z,2.10
2023-05-25T19:17:15.683Z,2.08
2023-05-25T19:19:42.939Z,1.90
2023-05-25T19:22:10.356Z,1.83
2023-05-25T19:24:41.000Z,2.00
2023-05-25T19:27:09.863Z,2.28
2023-05-25T19:29:37.118Z,2.05
2023-05-25T19:32:04.594Z,2.13
2023-05-25T19:34:31.878Z,2.00
2023-05-25T19:37:10.892Z,2.30
2023-05-25T19:39:39.211Z,2.38
2023-05-25T19:42:06.750Z,1.98
2023-05-25T19:44:34.099Z,1.80
2023-05-25T19:47:01.407Z,2.10
2023-05-25T19:49:29.272Z,2.00
2023-05-25T19:51:56.586Z,1.90
2023-05-25T19:54:23.881Z,2.00
2023-05-25T19:56:51.230Z,2.33
2023-05-25T19:59:18.504Z,2.30
2023-05-25T20:01:48.157Z,1.90
2023-05-25T20:04:15.621Z,2.22
2023-05-25T20:06:42.959Z,2.10
2023-05-25T20:09:12.644Z,2.03
2023-05-25T20:11:39.955Z,2.05
2023-05-25T20:14:08.099Z,1.77
2023-05-25T20:16:35.802Z,2.38
2023-05-25T20:19:07.581Z,1.95
2023-05-25T20:21:35.809Z,2.50
2023-05-25T20:24:03.531Z,2.03
2023-05-25T20:26:30.819Z,2.17
2023-05-25T20:28:58.110Z,1.90
2023-05-25T20:31:25.692Z,2.20
2023-05-25T20:33:52.969Z,2.05
2023-05-25T20:36:20.398Z,2.40
2023-05-25T20:38:47.775Z,2.15
2023-05-25T20:41:15.092Z,2.00
2023-05-25T20:43:42.393Z,1.95
2023-05-25T20:46:10.135Z,1.83
2023-05-25T20:48:37.801Z,2.00
2023-05-25T20:51:05.064Z,1.90
2023-05-25T20:53:34.810Z,2.10
2023-05-25T20:56:05.434Z,2.20
2023-05-25T20:58:32.743Z,2.20
2023-05-25T21:01:00.033Z,1.90
2023-05-25T21:03:27.464Z,2.20
2023-05-25T21:05:54.847Z,2.33
2023-05-25T21:08:23.686Z,2.05
2023-05-25T21:10:51.043Z,1.98
2023-05-25T21:13:18.319Z,2.30
2023-05-25T21:15:45.852Z,2.10
2023-05-25T21:18:13.326Z,1.95
2023-05-25T21:20:43.041Z,1.90
2023-05-25T21:23:11.690Z,1.88
2023-05-25T21:25:39.000Z,2.08
2023-05-25T21:28:08.272Z,2.10
2023-05-25T21:30:35.672Z,2.10
2023-05-25T21:33:02.974Z,2.20
2023-05-25T21:35:30.311Z,2.25
2023-05-25T21:37:57.611Z,2.10
2023-05-25T21:40:24.888Z,1.97
2023-05-25T21:42:53.456Z,2.07
2023-05-25T21:45:20.928Z,2.10
2023-05-25T21:47:48.378Z,2.15
2023-05-25T21:50:15.836Z,1.98
2023-05-25T21:52:43.114Z,1.95
2023-05-25T21:55:10.487Z,2.20
2023-05-25T21:57:37.825Z,2.05
2023-05-25T22:00:06.559Z,2.10
2023-05-25T22:02:33.976Z,2.03
2023-05-25T22:05:01.416Z,2.20
2023-05-25T22:07:28.692Z,1.95
2023-05-25T22:09:56.004Z,2.20
2023-05-25T22:12:23.298Z,1.73
2023-05-25T22:14:50.544Z,2.20
2023-05-25T22:17:19.079Z,1.90
2023-05-25T22:19:55.332Z,2.03
2023-05-25T22:22:33.589Z,1.73
2023-05-25T22:25:01.204Z,1.80
2023-05-25T22:27:28.513Z,2.00
2023-05-25T22:29:56.014Z,1.98
2023-05-25T22:32:23.488Z,2.20
2023-05-25T22:34:50.926Z,1.80
2023-05-25T22:37:18.244Z,1.80
2023-05-25T22:39:45.562Z,2.10
2023-05-25T22:42:12.869Z,1.80
2023-05-25T22:44:40.119Z,2.05
2023-05-25T22:47:07.474Z,1.77
2023-05-25T22:49:41.253Z,1.85
2023-05-25T22:52:12.165Z,1.83
2023-05-25T22:54:39.841Z,1.77
2023-05-25T22:57:07.352Z,1.80
2023-05-25T22:59:37.378Z,1.95
2023-05-25T23:02:04.867Z,2.05
2023-05-25T23:04:32.181Z,2.00
2023-05-25T23:06:59.426Z,2.15
2023-05-25T23:09:26.669Z,1.83
2023-05-25T23:11:53.997Z,2.10
2023-05-25T23:14:23.728Z,1.92
2023-05-25T23:16:51.148Z,2.10
2023-05-25T23:19:19.920Z,2.00
2023-05-25T23:21:48.240Z,2.00
2023-05-25T23:24:15.824Z,2.00
2023-05-25T23:26:43.097Z,1.95
2023-05-25T23:29:12.772Z,2.10
2023-05-25T23:31:40.161Z,1.88
2023-05-25T23:34:07.478Z,1.83
2023-05-25T23:36:34.754Z,2.00
2023-05-25T23:39:02.391Z,2.03
2023-05-25T23:41:29.666Z,1.70
2023-05-25T23:43:57.699Z,1.88
2023-05-25T23:48:58.914Z,2.20
2023-05-25T23:51:26.144Z,1.92
2023-05-25T23:53:53.454Z,1.90
2023-05-25T23:56:21.940Z,2.22
2023-05-25T23:58:49.221Z,1.90
